createdAt,value
2023-09-02T00:00:54.905Z,79.97
2023-09-02T00:03:21.898Z,79.87
2023-09-02T00:05:48.713Z,80.44
2023-09-02T00:08:15.413Z,81.23
2023-09-02T00:10:42.136Z,80.97
2023-09-02T00:13:08.926Z,80.93
2023-09-02T00:15:35.599Z,81.25
2023-09-02T00:18:02.337Z,79.68
2023-09-02T00:20:29.079Z,78.25
2023-09-02T00:22:55.846Z,77.46
2023-09-02T00:25:23.925Z,76.48
2023-09-02T00:27:50.706Z,76.74
2023-09-02T00:30:17.471Z,75.92
2023-09-02T00:32:44.281Z,75.69
2023-09-02T00:35:11.462Z,74.94
2023-09-02T00:37:38.244Z,75.04
2023-09-02T00:40:06.987Z,76.74
2023-09-02T00:42:35.004Z,77.32
2023-09-02T00:45:01.914Z,78.74
2023-09-02T00:47:29.050Z,79.92
2023-09-02T00:49:56.134Z,80.07
2023-09-02T00:52:22.879Z,80.60
2023-09-02T00:54:49.574Z,80.14
2023-09-02T00:57:16.443Z,80.84
2023-09-02T00:59:43.318Z,80.06
2023-09-02T01:02:10.580Z,78.87
2023-09-02T01:04:37.710Z,78.00
2023-09-02T01:07:04.669Z,78.08
2023-09-02T01:09:32.015Z,79.37
2023-09-02T01:11:58.870Z,80.67
2023-09-02T01:14:25.659Z,81.51
2023-09-02T01:16:52.553Z,81.53
2023-09-02T01:19:21.334Z,80.51
2023-09-02T01:21:59.469Z,79.95
2023-09-02T01:24:55.376Z,81.09
2023-09-02T01:27:53.338Z,80.82
2023-09-02T01:30:24.946Z,79.38
2023-09-02T01:32:54.570Z,79.92
2023-09-02T01:35:25.597Z,80.79
2023-09-02T01:37:56.390Z,80.41
2023-09-02T01:40:27.968Z,77.86
2023-09-02T01:42:58.023Z,77.32
2023-09-02T01:45:32.144Z,75.49
2023-09-02T01:47:59.562Z,75.21
2023-09-02T01:50:29.753Z,75.05
2023-09-02T01:53:00.112Z,74.82
2023-09-02T01:55:27.646Z,74.51
2023-09-02T01:57:56.550Z,74.50
2023-09-02T02:00:23.420Z,74.64
2023-09-02T02:02:56.166Z,74.64
2023-09-02T02:05:46.095Z,75.23
2023-09-02T02:08:17.134Z,74.98
2023-09-02T02:10:46.736Z,75.45
2023-09-02T02:13:14.172Z,74.90
2023-09-02T02:15:40.867Z,75.13
2023-09-02T02:18:10.345Z,75.35
2023-09-02T02:20:58.364Z,75.28
2023-09-02T02:23:25.090Z,75.05
2023-09-02T02:25:51.918Z,74.35
2023-09-02T02:28:19.587Z,75.32
2023-09-02T02:30:48.783Z,75.24
2023-09-02T02:33:15.670Z,77.41
2023-09-02T02:35:42.582Z,77.80
2023-09-02T02:38:09.336Z,77.46
2023-09-02T02:40:37.173Z,75.16
2023-09-02T02:43:04.100Z,75.38
2023-09-02T02:45:30.894Z,76.13
2023-09-02T02:48:01.221Z,78.27
2023-09-02T02:50:28.015Z,77.83
2023-09-02T02:52:54.773Z,79.13
2023-09-02T02:55:24.131Z,79.59
2023-09-02T02:57:50.926Z,80.08
2023-09-02T03:00:17.685Z,81.32
2023-09-02T03:02:44.533Z,81.74
2023-09-02T03:05:11.336Z,81.74
2023-09-02T03:07:40.551Z,82.20
2023-09-02T03:10:07.793Z,82.92
2023-09-02T03:12:34.471Z,82.86
2023-09-02T03:15:01.181Z,83.16
2023-09-02T03:17:27.948Z,82.81
2023-09-02T03:19:54.700Z,82.88
2023-09-02T03:22:21.515Z,80.59
2023-09-02T03:24:54.594Z,78.80
2023-09-02T03:27:21.964Z,77.91
2023-09-02T03:29:50.548Z,78.04
2023-09-02T03:32:17.737Z,77.73
2023-09-02T03:34:44.578Z,77.07
2023-09-02T03:37:11.361Z,78.94
2023-09-02T03:39:38.159Z,77.79
2023-09-02T03:42:05.333Z,78.38
2023-09-02T03:44:32.795Z,78.98
2023-09-02T03:46:59.636Z,79.68
2023-09-02T03:49:28.486Z,80.19
2023-09-02T03:51:55.426Z,79.62
2023-09-02T03:54:22.270Z,79.86
2023-09-02T03:56:48.998Z,80.98
2023-09-02T03:59:15.664Z,81.99
2023-09-02T04:01:42.407Z,82.52
2023-09-02T04:04:09.183Z,81.76
2023-09-02T04:06:35.931Z,81.64
2023-09-02T04:09:02.674Z,82.00
2023-09-02T04:11:29.380Z,82.15
2023-09-02T04:13:56.227Z,82.19
2023-09-02T04:16:23.036Z,81.63
2023-09-02T04:18:49.857Z,79.70
2023-09-02T04:21:16.602Z,77.60
2023-09-02T04:23:43.464Z,77.00
2023-09-02T04:26:10.152Z,76.99
2023-09-02T04:28:42.073Z,76.38
2023-09-02T04:31:08.756Z,76.01
2023-09-02T04:33:35.597Z,76.37
2023-09-02T04:36:03.970Z,76.49
2023-09-02T04:38:30.825Z,76.52
2023-09-02T04:40:57.787Z,76.63
2023-09-02T04:43:24.455Z,76.90
2023-09-02T04:45:51.341Z,76.75
2023-09-02T04:48:18.184Z,76.49
2023-09-02T04:50:45.095Z,76.50
2023-09-02T04:53:11.926Z,75.88
2023-09-02T04:55:49.424Z,75.48
2023-09-02T04:58:16.334Z,75.69
2023-09-02T05:00:43.031Z,75.59
2023-09-02T05:03:10.219Z,75.21
2023-09-02T05:05:37.492Z,75.24
2023-09-02T05:08:04.568Z,75.10
2023-09-02T05:10:31.452Z,75.72
2023-09-02T05:12:58.173Z,75.62
2023-09-02T05:15:25.051Z,74.42
2023-09-02T05:17:52.329Z,73.84
2023-09-02T05:20:19.163Z,73.74
2023-09-02T05:22:46.062Z,73.13
2023-09-02T05:25:12.873Z,72.95
2023-09-02T05:27:40.267Z,72.93
2023-09-02T05:30:07.677Z,72.52
2023-09-02T05:32:34.732Z,72.47
2023-09-02T05:35:01.558Z,72.07
2023-09-02T05:37:28.231Z,71.38
2023-09-02T05:39:54.958Z,72.84
2023-09-02T05:42:21.694Z,71.66
2023-09-02T05:44:48.501Z,70.95
2023-09-02T05:47:15.243Z,66.63
2023-09-02T05:49:42.009Z,64.96
2023-09-02T05:52:08.773Z,62.56
2023-09-02T05:54:35.511Z,62.74
2023-09-02T05:57:02.367Z,60.24
2023-09-02T05:59:30.540Z,61.24
2023-09-02T06:01:58.060Z,61.21
2023-09-02T06:04:24.652Z,59.18
2023-09-02T06:06:51.692Z,58.44
2023-09-02T06:09:18.420Z,56.60
2023-09-02T06:11:45.157Z,55.07
2023-09-02T06:14:11.889Z,54.92
2023-09-02T06:16:38.820Z,55.51
2023-09-02T06:19:05.603Z,55.26
2023-09-02T06:21:32.478Z,53.19
2023-09-02T06:23:59.230Z,54.04
2023-09-02T06:26:26.977Z,53.03
2023-09-02T06:28:53.812Z,52.76
2023-09-02T06:31:20.608Z,51.91
2023-09-02T06:33:47.409Z,51.99
2023-09-02T06:36:17.618Z,51.71
2023-09-02T06:38:45.081Z,52.39
2023-09-02T06:41:16.731Z,51.47
2023-09-02T06:43:44.248Z,51.99
2023-09-02T06:46:12.793Z,51.75
2023-09-02T06:48:39.775Z,52.28
2023-09-02T06:51:06.563Z,50.41
2023-09-02T06:53:33.412Z,50.83
2023-09-02T06:56:00.212Z,51.80
2023-09-02T06:58:26.998Z,51.72
2023-09-02T07:00:53.899Z,49.21
2023-09-02T07:03:21.178Z,47.61
2023-09-02T07:05:48.143Z,47.48
2023-09-02T07:08:14.946Z,46.12
2023-09-02T07:10:42.095Z,46.72
2023-09-02T07:13:08.881Z,46.66
2023-09-02T07:15:38.735Z,45.98
2023-09-02T07:18:06.173Z,45.08
2023-09-02T07:20:37.948Z,46.38
2023-09-02T07:23:04.983Z,44.97
2023-09-02T07:25:31.797Z,44.73
2023-09-02T07:27:58.585Z,45.18
2023-09-02T07:30:25.448Z,42.86
2023-09-02T07:32:52.335Z,41.05
2023-09-02T07:35:19.158Z,40.43
2023-09-02T07:37:45.912Z,40.71
2023-09-02T07:40:12.638Z,41.90
2023-09-02T07:42:39.412Z,41.47
2023-09-02T07:45:06.736Z,40.31
2023-09-02T07:47:33.534Z,40.93
2023-09-02T07:50:00.405Z,40.27
2023-09-02T07:52:27.280Z,38.38
2023-09-02T07:54:53.982Z,40.03
2023-09-02T07:57:20.768Z,38.18
2023-09-02T07:59:47.585Z,38.17
2023-09-02T08:02:14.362Z,35.98
2023-09-02T08:04:41.110Z,37.36
2023-09-02T08:07:07.813Z,36.99
2023-09-02T08:09:34.753Z,35.47
2023-09-02T08:12:10.054Z,35.09
2023-09-02T08:14:36.921Z,34.49
2023-09-02T08:17:03.819Z,33.78
2023-09-02T08:19:34.019Z,35.81
2023-09-02T08:22:00.928Z,34.03
2023-09-02T08:24:27.811Z,33.63
2023-09-02T08:27:04.593Z,32.62
2023-09-02T08:29:33.778Z,31.78
2023-09-02T08:32:01.911Z,33.32
2023-09-02T08:34:28.838Z,31.94
2023-09-02T08:36:55.673Z,31.09
2023-09-02T08:39:22.562Z,31.62
2023-09-02T08:41:52.527Z,31.66
2023-09-02T08:44:21.633Z,32.22
2023-09-02T08:46:57.209Z,31.31
2023-09-02T08:49:24.988Z,29.77
2023-09-02T08:51:53.851Z,32.21
2023-09-02T08:54:22.977Z,31.04
2023-09-02T08:56:50.406Z,33.48
2023-09-02T08:59:17.436Z,31.62
2023-09-02T09:01:50.271Z,31.37
2023-09-02T09:04:18.956Z,32.56
2023-09-02T09:06:46.020Z,31.69
2023-09-02T09:09:12.935Z,30.35
2023-09-02T09:11:44.537Z,31.35
2023-09-02T09:14:18.288Z,31.62
2023-09-02T09:16:46.874Z,31.38
2023-09-02T09:19:13.648Z,30.28
2023-09-02T09:21:40.600Z,31.91
2023-09-02T09:24:12.561Z,30.32
2023-09-02T09:26:39.827Z,30.65
2023-09-02T09:29:11.297Z,30.82
2023-09-02T09:31:38.074Z,31.77
2023-09-02T09:34:05.867Z,30.10
2023-09-02T09:36:32.963Z,31.05
2023-09-02T09:39:03.691Z,29.63
2023-09-02T09:41:31.183Z,28.93
2023-09-02T09:44:17.292Z,29.81
2023-09-02T09:46:44.054Z,31.58
2023-09-02T09:49:23.699Z,33.63
2023-09-02T09:52:02.916Z,35.36
2023-09-02T09:54:37.904Z,37.89
2023-09-02T09:57:15.318Z,39.43
2023-09-02T09:59:54.877Z,42.48
2023-09-02T10:02:22.840Z,43.99
2023-09-02T10:04:54.421Z,43.47
2023-09-02T10:07:26.400Z,42.58
2023-09-02T10:09:57.670Z,42.03
2023-09-02T10:12:24.638Z,41.45
2023-09-02T10:14:52.111Z,42.22
2023-09-02T10:17:19.647Z,42.39
2023-09-02T10:19:47.664Z,42.45
2023-09-02T10:22:20.514Z,42.03
2023-09-02T10:25:11.495Z,45.13
2023-09-02T10:27:42.053Z,43.10
2023-09-02T10:30:16.885Z,43.00
2023-09-02T10:32:52.499Z,44.48
2023-09-02T10:35:23.703Z,47.07
2023-09-02T10:37:59.899Z,46.99
2023-09-02T10:40:31.422Z,48.42
2023-09-02T10:42:59.460Z,50.70
2023-09-02T10:45:28.584Z,51.98
2023-09-02T10:47:55.457Z,51.66
2023-09-02T10:50:24.534Z,53.78
2023-09-02T10:53:04.113Z,52.04
2023-09-02T10:56:01.872Z,50.61
2023-09-02T10:58:37.550Z,49.87
2023-09-02T11:01:04.453Z,50.46
2023-09-02T11:03:51.407Z,51.06
2023-09-02T11:06:18.893Z,52.79
2023-09-02T11:08:51.013Z,54.34
2023-09-02T11:11:21.758Z,53.62
2023-09-02T11:14:07.659Z,53.70
2023-09-02T11:16:41.918Z,54.09
2023-09-02T11:19:13.204Z,59.05
2023-09-02T11:21:44.997Z,57.43
2023-09-02T11:24:21.817Z,57.87
2023-09-02T11:26:51.271Z,52.79
2023-09-02T11:29:27.794Z,52.80
2023-09-02T11:32:02.400Z,55.30
2023-09-02T11:34:31.000Z,57.78
2023-09-02T11:37:02.330Z,54.85
2023-09-02T11:39:30.681Z,55.34
2023-09-02T11:42:13.739Z,56.24
2023-09-02T11:44:51.815Z,57.66
2023-09-02T11:47:19.025Z,58.32
2023-09-02T11:49:45.778Z,61.98
2023-09-02T11:52:12.499Z,66.35
2023-09-02T11:54:40.456Z,66.93
2023-09-02T11:57:07.125Z,67.43
2023-09-02T11:59:33.929Z,69.30
2023-09-02T12:02:08.901Z,68.17
2023-09-02T12:04:39.704Z,67.73
2023-09-02T12:07:10.926Z,67.71
2023-09-02T12:09:38.933Z,68.28
2023-09-02T12:12:07.893Z,68.24
2023-09-02T12:14:37.264Z,68.93
2023-09-02T12:17:16.837Z,66.75
2023-09-02T12:19:43.791Z,63.76
2023-09-02T12:22:21.778Z,65.27
2023-09-02T12:24:48.660Z,66.00
2023-09-02T12:27:18.552Z,64.84
2023-09-02T12:29:56.540Z,68.21
2023-09-02T12:32:23.914Z,72.81
2023-09-02T12:34:50.970Z,75.23
2023-09-02T12:37:19.438Z,74.51
2023-09-02T12:39:46.284Z,75.61
2023-09-02T12:42:16.492Z,75.39
2023-09-02T12:45:03.808Z,76.82
2023-09-02T12:47:31.172Z,76.34
2023-09-02T12:50:02.796Z,75.62
2023-09-02T12:52:31.104Z,75.17
2023-09-02T12:55:00.214Z,73.51
2023-09-02T12:57:29.731Z,74.50
2023-09-02T12:59:56.800Z,75.03
2023-09-02T13:02:25.615Z,74.65
2023-09-02T13:04:53.636Z,73.95
2023-09-02T13:07:21.257Z,74.51
2023-09-02T13:09:49.310Z,74.00
2023-09-02T13:12:16.587Z,73.54
2023-09-02T13:14:44.075Z,72.81
2023-09-02T13:17:14.531Z,73.20
2023-09-02T13:19:41.352Z,74.07
2023-09-02T13:22:10.339Z,73.61
2023-09-02T13:24:38.836Z,73.43
2023-09-02T13:27:05.953Z,73.85
2023-09-02T13:29:34.179Z,75.05
2023-09-02T13:32:08.092Z,75.11
2023-09-02T13:34:37.713Z,74.48
2023-09-02T13:37:19.770Z,75.00
2023-09-02T13:40:00.228Z,75.92
2023-09-02T13:42:28.065Z,76.32
2023-09-02T13:45:10.457Z,73.95
2023-09-02T13:47:37.484Z,74.25
2023-09-02T13:50:04.765Z,73.51
2023-09-02T13:52:31.706Z,73.09
2023-09-02T13:54:59.815Z,71.75
2023-09-02T13:57:26.792Z,69.82
2023-09-02T13:59:58.273Z,69.07
2023-09-02T14:02:26.644Z,69.53
2023-09-02T14:04:54.001Z,69.37
2023-09-02T14:07:21.265Z,69.36
2023-09-02T14:09:48.343Z,68.59
2023-09-02T14:12:20.037Z,69.98
2023-09-02T14:14:47.631Z,67.47
2023-09-02T14:17:15.193Z,69.30
2023-09-02T14:19:42.061Z,69.06
2023-09-02T14:22:09.010Z,67.37
2023-09-02T14:24:35.910Z,67.99
2023-09-02T14:27:10.473Z,67.35
2023-09-02T14:29:38.270Z,66.82
2023-09-02T14:32:05.998Z,68.35
2023-09-02T14:34:33.928Z,68.67
2023-09-02T14:37:02.866Z,68.79
2023-09-02T14:39:31.345Z,67.84
2023-09-02T14:41:58.152Z,68.92
2023-09-02T14:44:25.094Z,69.14
2023-09-02T14:46:52.134Z,68.51
2023-09-02T14:49:19.648Z,67.72
2023-09-02T14:51:48.104Z,67.32
2023-09-02T14:54:17.001Z,66.45
2023-09-02T14:56:46.063Z,67.60
2023-09-02T14:59:31.082Z,67.91
2023-09-02T15:01:57.906Z,67.82
2023-09-02T15:04:25.180Z,68.06
2023-09-02T15:06:52.957Z,67.85
2023-09-02T15:09:38.975Z,67.97
2023-09-02T15:12:06.995Z,68.45
2023-09-02T15:14:36.154Z,68.07
2023-09-02T15:17:09.312Z,67.61
2023-09-02T15:19:36.105Z,67.12
2023-09-02T15:22:03.311Z,67.30
2023-09-02T15:24:33.599Z,68.12
2023-09-02T15:27:04.130Z,67.75
2023-09-02T15:29:30.876Z,67.46
2023-09-02T15:31:57.995Z,67.68
2023-09-02T15:34:25.612Z,68.39
2023-09-02T15:37:00.158Z,67.71
2023-09-02T15:39:28.781Z,68.41
2023-09-02T15:41:56.676Z,68.42
2023-09-02T15:44:23.534Z,69.30
2023-09-02T15:46:50.280Z,69.71
2023-09-02T15:49:17.072Z,69.06
2023-09-02T15:51:43.902Z,69.89
2023-09-02T15:54:13.462Z,70.49
2023-09-02T15:56:40.265Z,70.18
2023-09-02T15:59:07.100Z,70.26
2023-09-02T16:01:33.992Z,70.99
2023-09-02T16:04:00.826Z,71.04
2023-09-02T16:06:27.649Z,70.71
2023-09-02T16:08:54.881Z,69.93
2023-09-02T16:11:21.809Z,66.71
2023-09-02T16:13:48.535Z,66.15
2023-09-02T16:16:15.392Z,65.14
2023-09-02T16:18:42.154Z,65.53
2023-09-02T16:21:09.094Z,64.56
2023-09-02T16:23:35.800Z,65.38
2023-09-02T16:26:02.640Z,65.10
2023-09-02T16:28:29.383Z,65.36
2023-09-02T16:30:56.129Z,65.29
2023-09-02T16:33:23.012Z,65.62
2023-09-02T16:35:50.561Z,66.09
2023-09-02T16:38:18.488Z,65.62
2023-09-02T16:40:45.873Z,66.08
2023-09-02T16:43:17.386Z,66.49
2023-09-02T16:45:48.522Z,66.79
2023-09-02T16:48:16.452Z,66.91
2023-09-02T16:50:46.881Z,66.55
2023-09-02T16:53:18.027Z,66.57
2023-09-02T16:55:53.861Z,67.28
2023-09-02T16:58:20.593Z,67.37
2023-09-02T17:00:48.048Z,66.95
2023-09-02T17:03:18.323Z,67.15
2023-09-02T17:05:46.332Z,67.48
2023-09-02T17:08:22.034Z,68.43
2023-09-02T17:10:52.650Z,68.18
2023-09-02T17:13:19.590Z,68.18
2023-09-02T17:15:48.644Z,68.79
2023-09-02T17:18:17.220Z,68.69
2023-09-02T17:20:44.975Z,68.51
2023-09-02T17:23:19.173Z,68.65
2023-09-02T17:25:48.108Z,68.54
2023-09-02T17:28:21.276Z,68.16
2023-09-02T17:30:55.265Z,68.44
2023-09-02T17:33:21.874Z,68.33
2023-09-02T17:35:48.591Z,68.71
2023-09-02T17:38:15.386Z,68.56
2023-09-02T17:40:42.103Z,68.85
2023-09-02T17:43:09.305Z,69.81
2023-09-02T17:45:36.021Z,69.61
2023-09-02T17:48:02.794Z,69.68
2023-09-02T17:50:29.711Z,69.78
2023-09-02T17:52:56.508Z,70.14
2023-09-02T17:55:23.219Z,70.39
2023-09-02T17:57:50.044Z,70.14
2023-09-02T18:00:17.042Z,70.26
2023-09-02T18:02:44.632Z,70.43
2023-09-02T18:05:12.627Z,70.46
2023-09-02T18:07:39.772Z,69.98
2023-09-02T18:10:09.045Z,69.85
2023-09-02T18:12:36.345Z,70.10
2023-09-02T18:15:03.190Z,70.13
2023-09-02T18:17:29.969Z,70.30
2023-09-02T18:19:56.666Z,70.00
2023-09-02T18:22:23.506Z,70.03
2023-09-02T18:24:50.361Z,70.26
2023-09-02T18:27:17.788Z,70.49
2023-09-02T18:29:44.527Z,70.10
2023-09-02T18:32:11.234Z,70.03
2023-09-02T18:34:37.990Z,70.34
2023-09-02T18:37:04.988Z,70.29
2023-09-02T18:39:31.982Z,70.69
2023-09-02T18:41:59.013Z,70.86
2023-09-02T18:44:25.807Z,70.62
2023-09-02T18:46:52.600Z,70.47
2023-09-02T18:49:19.436Z,69.71
2023-09-02T18:51:46.300Z,70.08
2023-09-02T18:54:13.249Z,70.37
2023-09-02T18:56:40.015Z,71.01
2023-09-02T18:59:08.711Z,71.42
2023-09-02T19:01:35.950Z,72.21
2023-09-02T19:04:03.650Z,73.11
2023-09-02T19:06:34.960Z,74.23
2023-09-02T19:09:02.572Z,74.44
2023-09-02T19:11:30.245Z,75.18
2023-09-02T19:13:57.756Z,75.68
2023-09-02T19:16:25.842Z,76.52
2023-09-02T19:19:10.044Z,76.61
2023-09-02T19:21:36.869Z,77.36
2023-09-02T19:24:04.107Z,76.59
2023-09-02T19:26:30.945Z,77.29
2023-09-02T19:28:57.717Z,77.15
2023-09-02T19:31:24.424Z,76.73
2023-09-02T19:33:51.216Z,76.29
2023-09-02T19:36:17.973Z,75.81
2023-09-02T19:38:44.732Z,75.56
2023-09-02T19:41:11.561Z,75.55
2023-09-02T19:43:39.610Z,74.34
2023-09-02T19:46:07.335Z,75.25
2023-09-02T19:48:34.295Z,75.75
2023-09-02T19:51:01.107Z,76.58
2023-09-02T19:53:28.054Z,75.51
2023-09-02T19:55:56.418Z,75.14
2023-09-02T19:58:23.310Z,74.02
2023-09-02T20:00:50.032Z,73.66
2023-09-02T20:03:18.342Z,73.68
2023-09-02T20:05:46.261Z,73.98
2023-09-02T20:08:15.770Z,73.63
2023-09-02T20:10:42.662Z,72.66
2023-09-02T20:13:09.444Z,74.52
2023-09-02T20:15:36.741Z,74.57
2023-09-02T20:18:04.317Z,74.89
2023-09-02T20:20:32.679Z,74.70
2023-09-02T20:23:00.058Z,75.32
2023-09-02T20:25:31.354Z,75.08
2023-09-02T20:27:58.133Z,75.94
2023-09-02T20:30:24.908Z,76.31
2023-09-02T20:32:53.010Z,76.39
2023-09-02T20:35:19.821Z,76.92
2023-09-02T20:37:46.829Z,77.27
2023-09-02T20:40:13.757Z,77.41
2023-09-02T20:42:40.522Z,76.56
2023-09-02T20:45:07.487Z,75.67
2023-09-02T20:47:34.258Z,77.21
2023-09-02T20:50:01.890Z,77.93
2023-09-02T20:52:28.719Z,77.20
2023-09-02T20:54:58.160Z,73.52
2023-09-02T20:57:24.976Z,74.29
2023-09-02T20:59:53.119Z,74.08
2023-09-02T21:02:20.413Z,74.59
2023-09-02T21:04:49.008Z,76.33
2023-09-02T21:07:15.949Z,77.54
2023-09-02T21:09:42.856Z,77.34
2023-09-02T21:12:11.747Z,78.24
2023-09-02T21:14:38.555Z,78.17
2023-09-02T21:17:05.533Z,76.92
2023-09-02T21:19:36.904Z,76.67
2023-09-02T21:22:03.818Z,77.58
2023-09-02T21:24:30.588Z,77.56
2023-09-02T21:26:58.526Z,78.15
2023-09-02T21:29:25.553Z,78.04
2023-09-02T21:31:52.284Z,77.90
2023-09-02T21:34:19.033Z,77.57
2023-09-02T21:36:46.243Z,76.80
2023-09-02T21:39:12.963Z,76.73
2023-09-02T21:41:39.733Z,77.09
2023-09-02T21:44:06.597Z,77.46
2023-09-02T21:46:34.241Z,77.84
2023-09-02T21:49:01.246Z,79.21
2023-09-02T21:51:28.014Z,79.02
2023-09-02T21:53:57.932Z,79.21
2023-09-02T21:56:24.804Z,79.37
2023-09-02T21:58:51.525Z,79.25
2023-09-02T22:01:19.628Z,79.10
2023-09-02T22:03:46.806Z,80.65
2023-09-02T22:06:15.541Z,80.11
2023-09-02T22:08:46.912Z,81.61
2023-09-02T22:11:14.629Z,80.56
2023-09-02T22:13:44.648Z,81.39
2023-09-02T22:16:11.917Z,81.14
2023-09-02T22:18:38.686Z,81.26
2023-09-02T22:21:08.103Z,81.15
2023-09-02T22:23:35.504Z,81.19
2023-09-02T22:26:05.558Z,80.27
2023-09-02T22:28:35.741Z,80.24
2023-09-02T22:31:03.916Z,81.59
2023-09-02T22:33:32.516Z,81.65
2023-09-02T22:35:59.826Z,81.77
2023-09-02T22:38:41.281Z,82.03
2023-09-02T22:41:14.406Z,82.29
2023-09-02T22:43:41.196Z,82.57
2023-09-02T22:46:09.771Z,82.53
2023-09-02T22:48:36.655Z,82.04
2023-09-02T22:51:04.725Z,82.29
2023-09-02T22:53:31.632Z,82.47
2023-09-02T22:56:01.424Z,82.86
2023-09-02T22:58:28.160Z,83.34
2023-09-02T23:00:54.928Z,82.71
2023-09-02T23:03:22.009Z,82.39
2023-09-02T23:05:48.969Z,82.87
2023-09-02T23:08:15.845Z,81.80
2023-09-02T23:10:43.950Z,81.63
2023-09-02T23:13:10.729Z,81.01
2023-09-02T23:15:37.576Z,81.74
2023-09-02T23:18:05.028Z,81.66
2023-09-02T23:20:31.806Z,82.14
2023-09-02T23:22:59.019Z,80.60
2023-09-02T23:25:25.998Z,79.09
2023-09-02T23:27:53.366Z,77.67
2023-09-02T23:30:21.026Z,76.93
2023-09-02T23:32:53.051Z,77.39
2023-09-02T23:35:19.841Z,77.70
2023-09-02T23:37:46.761Z,77.62
2023-09-02T23:40:16.569Z,77.59
2023-09-02T23:42:44.171Z,77.37
2023-09-02T23:45:11.829Z,77.61
2023-09-02T23:47:38.811Z,76.87
2023-09-02T23:50:06.057Z,76.87
2023-09-02T23:52:34.464Z,77.45
2023-09-02T23:55:01.874Z,76.30
2023-09-02T23:57:28.644Z,75.73
2023-09-02T23:59:55.375Z,76.42
